createdAt,value
2018-09-29T00:02:09.343Z,93.30
2018-09-29T00:04:37.996Z,93.40
2018-09-29T00:07:06.795Z,93.30
2018-09-29T00:09:35.440Z,93.30
2018-09-29T00:12:04.399Z,93.60
2018-09-29T00:14:33.036Z,93.60
2018-09-29T00:17:01.616Z,93.50
2018-09-29T00:19:30.265Z,93.20
2018-09-29T00:21:58.904Z,93.20
2018-09-29T00:24:27.565Z,93.30
2018-09-29T00:26:56.219Z,93.30
2018-09-29T00:29:24.880Z,93.50
2018-09-29T00:31:53.526Z,93.60
2018-09-29T00:34:22.140Z,93.60
2018-09-29T00:36:50.813Z,93.50
2018-09-29T00:39:19.451Z,93.50
2018-09-29T00:41:48.107Z,93.50
2018-09-29T00:44:17.002Z,93.50
2018-09-29T00:46:45.609Z,93.50
2018-09-29T00:49:14.270Z,93.60
2018-09-29T00:51:42.991Z,93.60
2018-09-29T00:54:11.574Z,93.40
2018-09-29T00:56:40.217Z,93.50
2018-09-29T00:59:08.888Z,93.50
2018-09-29T01:01:37.518Z,93.40
2018-09-29T01:04:06.268Z,93.50
2018-09-29T01:06:34.907Z,93.50
2018-09-29T01:09:04.384Z,93.60
2018-09-29T01:11:33.048Z,93.50
2018-09-29T01:14:01.718Z,93.40
2018-09-29T01:16:30.416Z,93.50
2018-09-29T01:18:59.056Z,93.50
2018-09-29T01:21:27.699Z,93.60
2018-09-29T01:23:56.320Z,93.50
2018-09-29T01:26:25.078Z,93.40
2018-09-29T01:28:53.707Z,93.60
2018-09-29T01:31:22.354Z,93.60
2018-09-29T01:33:51.247Z,93.60
2018-09-29T01:36:19.876Z,93.50
2018-09-29T01:38:48.508Z,93.60
2018-09-29T01:41:17.171Z,93.70
2018-09-29T01:43:46.032Z,93.70
2018-09-29T01:46:14.616Z,93.60
2018-09-29T01:48:43.248Z,93.50
2018-09-29T01:51:11.924Z,93.40
2018-09-29T01:53:40.611Z,93.30
2018-09-29T01:56:09.272Z,93.30
2018-09-29T01:58:37.960Z,93.30
2018-09-29T02:01:06.743Z,93.40
2018-09-29T02:03:35.372Z,93.40
2018-09-29T02:06:04.038Z,93.40
2018-09-29T02:08:32.697Z,93.40
2018-09-29T02:11:01.323Z,93.40
2018-09-29T02:13:30.219Z,93.50
2018-09-29T02:15:58.842Z,93.50
2018-09-29T02:18:27.469Z,93.40
2018-09-29T02:20:56.159Z,93.40
2018-09-29T02:23:24.790Z,93.60
2018-09-29T02:25:53.476Z,93.60
2018-09-29T02:28:22.188Z,94.00
2018-09-29T02:30:51.085Z,93.70
2018-09-29T02:33:19.763Z,94.10
2018-09-29T02:35:48.373Z,93.80
2018-09-29T02:38:17.012Z,93.70
2018-09-29T02:40:45.617Z,93.90
2018-09-29T02:43:14.324Z,93.90
2018-09-29T02:45:42.951Z,93.90
2018-09-29T02:48:11.615Z,93.90
2018-09-29T02:50:40.219Z,93.80
2018-09-29T02:53:08.855Z,93.80
2018-09-29T02:55:37.503Z,93.80
2018-09-29T02:58:06.161Z,93.60
2018-09-29T03:00:34.794Z,93.70
2018-09-29T03:03:03.483Z,93.90
2018-09-29T03:05:32.165Z,93.80
2018-09-29T03:08:01.113Z,93.80
2018-09-29T03:10:29.729Z,93.80
2018-09-29T03:12:58.344Z,93.80
2018-09-29T03:15:26.991Z,93.80
2018-09-29T03:17:55.667Z,93.80
2018-09-29T03:20:24.336Z,93.80
2018-09-29T03:22:53.004Z,93.80
2018-09-29T03:25:21.645Z,93.80
2018-09-29T03:27:50.334Z,93.80
2018-09-29T03:30:18.971Z,93.70
2018-09-29T03:32:47.583Z,93.70
2018-09-29T03:35:16.200Z,93.80
2018-09-29T03:37:45.247Z,93.80
2018-09-29T03:40:13.843Z,93.80
2018-09-29T03:42:42.433Z,93.80
2018-09-29T03:45:11.086Z,93.80
2018-09-29T03:47:39.757Z,93.90
2018-09-29T03:50:08.465Z,93.80
2018-09-29T03:52:37.156Z,93.80
2018-09-29T03:55:05.901Z,93.70
2018-09-29T03:57:34.568Z,93.70
2018-09-29T04:00:03.268Z,93.70
2018-09-29T04:02:31.988Z,93.70
2018-09-29T04:05:00.567Z,93.80
2018-09-29T04:07:29.200Z,93.80
2018-09-29T04:09:57.832Z,93.70
2018-09-29T04:12:26.868Z,93.80
2018-09-29T04:14:55.479Z,93.70
2018-09-29T04:17:24.072Z,93.80
2018-09-29T04:19:52.751Z,93.80
2018-09-29T04:22:21.374Z,94.20
2018-09-29T04:24:50.059Z,93.80
2018-09-29T04:27:18.696Z,93.90
2018-09-29T04:29:47.391Z,93.70
2018-09-29T04:32:16.049Z,93.70
2018-09-29T04:34:44.697Z,93.70
2018-09-29T04:37:13.342Z,93.70
2018-09-29T04:39:42.050Z,93.80
2018-09-29T04:42:10.676Z,93.80
2018-09-29T04:44:39.322Z,93.70
2018-09-29T04:47:08.014Z,93.80
2018-09-29T04:49:36.683Z,93.70
2018-09-29T04:52:05.311Z,93.90
2018-09-29T04:54:34.000Z,94.00
2018-09-29T04:57:02.640Z,94.20
2018-09-29T04:59:31.247Z,94.20
2018-09-29T05:01:59.907Z,94.30
2018-09-29T05:04:28.510Z,94.10
2018-09-29T05:06:57.138Z,94.20
2018-09-29T05:09:25.773Z,94.10
2018-09-29T05:11:54.415Z,94.00
2018-09-29T05:14:23.123Z,94.10
2018-09-29T05:16:51.739Z,94.10
2018-09-29T05:19:20.341Z,94.10
2018-09-29T05:21:48.939Z,94.10
2018-09-29T05:24:17.613Z,94.10
2018-09-29T05:26:46.263Z,94.10
2018-09-29T05:29:14.892Z,94.10
2018-09-29T05:31:43.592Z,94.20
2018-09-29T05:34:12.280Z,94.20
2018-09-29T05:36:40.910Z,94.20
2018-09-29T05:39:10.024Z,94.10
2018-09-29T05:41:38.692Z,94.20
2018-09-29T05:44:07.344Z,94.20
2018-09-29T05:46:35.980Z,94.20
2018-09-29T05:49:04.699Z,94.30
2018-09-29T05:51:33.519Z,94.30
2018-09-29T05:54:02.189Z,94.30
2018-09-29T05:56:30.850Z,94.20
2018-09-29T05:58:59.495Z,94.10
2018-09-29T06:01:28.100Z,94.30
2018-09-29T06:03:56.763Z,94.40
2018-09-29T06:06:25.364Z,94.50
2018-09-29T06:08:54.009Z,94.60
2018-09-29T06:11:22.687Z,94.70
2018-09-29T06:13:51.323Z,94.70
2018-09-29T06:16:20.044Z,94.70
2018-09-29T06:18:48.651Z,94.50
2018-09-29T06:21:17.275Z,94.50
2018-09-29T06:23:45.979Z,94.40
2018-09-29T06:26:14.638Z,94.30
2018-09-29T06:28:43.303Z,94.40
2018-09-29T06:31:12.088Z,94.30
2018-09-29T06:33:41.136Z,94.20
2018-09-29T06:36:09.760Z,94.10
2018-09-29T06:38:38.362Z,94.00
2018-09-29T06:41:07.299Z,94.00
2018-09-29T06:43:35.940Z,94.00
2018-09-29T06:46:04.656Z,93.90
2018-09-29T06:48:33.320Z,94.50
2018-09-29T06:51:01.973Z,94.10
2018-09-29T06:53:30.595Z,94.20
2018-09-29T06:55:59.256Z,94.20
2018-09-29T06:58:27.860Z,94.20
2018-09-29T07:00:56.507Z,94.10
2018-09-29T07:03:25.108Z,94.30
2018-09-29T07:05:53.807Z,94.90
2018-09-29T07:08:22.427Z,94.50
2018-09-29T07:10:51.103Z,94.30
2018-09-29T07:13:19.748Z,94.40
2018-09-29T07:15:48.383Z,94.50
2018-09-29T07:18:17.051Z,94.50
2018-09-29T07:20:45.695Z,94.40
2018-09-29T07:23:14.328Z,94.80
2018-09-29T07:25:42.995Z,94.40
2018-09-29T07:28:11.658Z,94.30
2018-09-29T07:30:40.337Z,94.20
2018-09-29T07:33:09.143Z,94.10
2018-09-29T07:35:37.816Z,94.60
2018-09-29T07:38:06.657Z,95.10
2018-09-29T07:40:35.244Z,95.20
2018-09-29T07:43:03.925Z,94.50
2018-09-29T07:45:32.631Z,94.90
2018-09-29T07:48:01.175Z,94.60
2018-09-29T07:50:29.807Z,94.80
2018-09-29T07:52:58.396Z,94.70
2018-09-29T07:55:27.101Z,94.30
2018-09-29T07:57:55.772Z,94.60
2018-09-29T08:00:24.437Z,94.40
2018-09-29T08:02:53.091Z,94.50
2018-09-29T08:05:21.737Z,94.10
2018-09-29T08:07:50.389Z,94.00
2018-09-29T08:10:19.016Z,93.60
2018-09-29T08:12:47.667Z,93.40
2018-09-29T08:15:16.328Z,92.90
2018-09-29T08:17:45.076Z,92.80
2018-09-29T08:20:13.689Z,92.30
2018-09-29T08:22:42.406Z,91.50
2018-09-29T08:25:11.060Z,91.20
2018-09-29T08:27:39.697Z,90.90
2018-09-29T08:30:08.422Z,90.90
2018-09-29T08:32:37.098Z,90.30
2018-09-29T08:35:05.724Z,90.20
2018-09-29T08:37:34.366Z,89.40
2018-09-29T08:40:03.043Z,89.80
2018-09-29T08:42:31.659Z,88.70
2018-09-29T08:45:00.363Z,87.30
2018-09-29T08:47:28.940Z,86.90
2018-09-29T08:49:57.613Z,86.90
2018-09-29T08:52:26.265Z,86.00
2018-09-29T08:54:54.893Z,85.80
2018-09-29T08:57:23.511Z,84.80
2018-09-29T08:59:52.095Z,84.00
2018-09-29T09:02:20.740Z,81.60
2018-09-29T09:04:49.355Z,80.50
2018-09-29T09:07:18.014Z,79.80
2018-09-29T09:09:46.649Z,79.10
2018-09-29T09:12:15.340Z,78.70
2018-09-29T09:14:43.923Z,77.00
2018-09-29T09:17:12.543Z,77.60
2018-09-29T09:19:41.196Z,77.30
2018-09-29T09:22:09.828Z,76.10
2018-09-29T09:24:38.479Z,75.80
2018-09-29T09:27:07.177Z,73.80
2018-09-29T09:29:35.799Z,74.60
2018-09-29T09:32:04.457Z,74.60
2018-09-29T09:34:33.125Z,74.20
2018-09-29T09:37:01.747Z,75.80
2018-09-29T09:39:30.398Z,75.30
2018-09-29T09:41:59.260Z,74.60
2018-09-29T09:44:27.851Z,74.60
2018-09-29T09:46:56.527Z,73.00
2018-09-29T09:49:25.221Z,71.60
2018-09-29T09:51:53.840Z,71.00
2018-09-29T09:54:22.474Z,70.90
2018-09-29T09:56:51.204Z,70.90
2018-09-29T09:59:19.817Z,70.00
2018-09-29T10:01:53.912Z,70.80
2018-09-29T10:04:22.499Z,70.60
2018-09-29T10:06:51.161Z,71.60
2018-09-29T10:09:19.841Z,70.00
2018-09-29T10:11:48.464Z,69.20
2018-09-29T10:14:17.128Z,67.60
2018-09-29T10:16:45.729Z,68.20
2018-09-29T10:19:14.323Z,67.90
2018-09-29T10:21:43.213Z,66.50
2018-09-29T10:24:11.863Z,66.10
2018-09-29T10:26:40.479Z,67.20
2018-09-29T10:29:09.110Z,64.60
2018-09-29T10:31:37.723Z,65.30
2018-09-29T10:34:06.498Z,65.40
2018-09-29T10:36:35.116Z,64.00
2018-09-29T10:39:04.968Z,66.20
2018-09-29T10:41:33.600Z,66.70
2018-09-29T10:44:02.224Z,64.20
2018-09-29T10:46:31.769Z,64.30
2018-09-29T10:49:00.679Z,64.40
2018-09-29T10:51:29.291Z,65.70
2018-09-29T10:53:58.375Z,64.30
2018-09-29T10:56:27.025Z,64.80
2018-09-29T10:58:55.737Z,62.70
2018-09-29T11:01:24.369Z,63.50
2018-09-29T11:03:52.976Z,60.70
2018-09-29T11:06:21.661Z,60.70
2018-09-29T11:08:50.319Z,61.00
2018-09-29T11:11:18.966Z,60.20
2018-09-29T11:13:47.626Z,62.10
2018-09-29T11:16:16.280Z,63.20
2018-09-29T11:18:44.911Z,64.90
2018-09-29T11:21:13.528Z,66.00
2018-09-29T11:23:42.167Z,65.00
2018-09-29T11:26:10.803Z,61.40
2018-09-29T11:28:39.403Z,62.00
2018-09-29T11:31:08.031Z,61.70
2018-09-29T11:33:36.630Z,62.30
2018-09-29T11:36:05.279Z,62.30
2018-09-29T11:38:33.927Z,61.40
2018-09-29T11:41:02.608Z,60.30
2018-09-29T11:43:31.256Z,60.90
2018-09-29T11:45:59.956Z,59.30
2018-09-29T11:48:28.635Z,60.70
2018-09-29T11:50:57.295Z,61.40
2018-09-29T11:53:25.870Z,61.50
2018-09-29T11:55:54.776Z,62.00
2018-09-29T11:58:23.400Z,60.70
2018-09-29T12:00:52.022Z,63.70
2018-09-29T12:03:20.655Z,63.70
2018-09-29T12:05:49.284Z,63.00
2018-09-29T12:08:17.908Z,67.40
2018-09-29T12:10:46.530Z,68.50
2018-09-29T12:13:15.158Z,62.20
2018-09-29T12:15:43.788Z,66.50
2018-09-29T12:18:12.446Z,65.70
2018-09-29T12:20:41.060Z,63.90
2018-09-29T12:23:09.704Z,66.70
2018-09-29T12:25:38.338Z,72.30
2018-09-29T12:28:06.992Z,72.70
2018-09-29T12:30:35.646Z,65.00
2018-09-29T12:33:04.262Z,61.30
2018-09-29T12:35:32.947Z,63.20
2018-09-29T12:38:01.600Z,64.80
2018-09-29T12:40:30.263Z,68.40
2018-09-29T12:42:58.919Z,69.90
2018-09-29T12:45:27.567Z,71.40
2018-09-29T12:47:56.220Z,74.20
2018-09-29T12:50:24.856Z,73.60
2018-09-29T12:52:53.495Z,72.50
2018-09-29T12:55:22.129Z,74.30
2018-09-29T12:57:50.787Z,77.20
2018-09-29T13:00:19.442Z,67.70
2018-09-29T13:02:48.084Z,62.10
2018-09-29T13:05:16.928Z,59.70
2018-09-29T13:07:45.468Z,58.50
2018-09-29T13:10:14.196Z,59.40
2018-09-29T13:12:42.907Z,57.50
2018-09-29T13:15:11.524Z,57.20
2018-09-29T13:17:40.261Z,57.40
2018-09-29T13:20:08.975Z,56.90
2018-09-29T13:22:37.572Z,57.40
2018-09-29T13:25:06.296Z,55.60
2018-09-29T13:27:34.999Z,56.60
2018-09-29T13:30:03.681Z,57.00
2018-09-29T13:32:32.323Z,55.80
2018-09-29T13:35:01.039Z,57.10
2018-09-29T13:37:29.642Z,55.50
2018-09-29T13:39:58.274Z,56.00
2018-09-29T13:42:26.952Z,54.20
2018-09-29T13:44:55.743Z,55.10
2018-09-29T13:47:24.348Z,56.80
2018-09-29T13:49:52.991Z,53.30
2018-09-29T13:52:21.593Z,55.00
2018-09-29T13:54:50.267Z,54.50
2018-09-29T13:57:18.915Z,54.30
2018-09-29T13:59:47.583Z,54.60
2018-09-29T14:02:16.279Z,52.90
2018-09-29T14:04:44.967Z,53.30
2018-09-29T14:07:13.615Z,54.00
2018-09-29T14:09:42.256Z,54.20
2018-09-29T14:12:10.907Z,54.50
2018-09-29T14:14:39.539Z,55.40
2018-09-29T14:17:08.207Z,55.10
2018-09-29T14:19:36.891Z,53.70
2018-09-29T14:22:05.579Z,54.50
2018-09-29T14:24:34.239Z,53.70
2018-09-29T14:27:02.854Z,54.40
2018-09-29T14:29:31.875Z,53.70
2018-09-29T14:32:00.746Z,53.00
2018-09-29T14:34:29.341Z,54.60
2018-09-29T14:36:58.096Z,53.90
2018-09-29T14:39:26.721Z,53.90
2018-09-29T14:41:55.475Z,54.80
2018-09-29T14:44:24.127Z,54.60
2018-09-29T14:46:52.719Z,52.30
2018-09-29T14:49:21.363Z,55.20
2018-09-29T14:51:50.021Z,52.90
2018-09-29T14:54:18.700Z,54.10
2018-09-29T14:56:47.343Z,55.70
2018-09-29T14:59:16.054Z,54.60
2018-09-29T15:01:44.699Z,57.90
2018-09-29T15:04:13.409Z,61.70
2018-09-29T15:06:41.968Z,58.50
2018-09-29T15:09:11.829Z,54.60
2018-09-29T15:11:40.479Z,56.90
2018-09-29T15:14:09.739Z,56.20
2018-09-29T15:16:38.438Z,56.40
2018-09-29T15:19:07.196Z,55.20
2018-09-29T15:21:35.862Z,54.40
2018-09-29T15:24:04.563Z,57.80
2018-09-29T15:26:33.194Z,57.90
2018-09-29T15:29:01.835Z,56.80
2018-09-29T15:31:30.452Z,59.30
2018-09-29T15:33:59.080Z,56.20
2018-09-29T15:36:27.748Z,58.50
2018-09-29T15:38:56.756Z,65.20
2018-09-29T15:41:25.408Z,65.20
2018-09-29T15:43:54.048Z,67.20
2018-09-29T15:46:22.663Z,62.40
2018-09-29T15:48:51.354Z,63.20
2018-09-29T15:51:19.952Z,65.90
2018-09-29T15:53:48.603Z,65.70
2018-09-29T15:56:17.263Z,64.40
2018-09-29T15:58:45.888Z,65.30
2018-09-29T16:01:14.520Z,68.00
2018-09-29T16:03:43.163Z,67.20
2018-09-29T16:06:11.815Z,71.30
2018-09-29T16:08:40.508Z,69.60
2018-09-29T16:11:09.170Z,71.40
2018-09-29T16:13:37.812Z,73.90
2018-09-29T16:16:06.497Z,73.70
2018-09-29T16:18:35.197Z,74.40
2018-09-29T16:21:03.875Z,74.80
2018-09-29T16:23:32.504Z,73.90
2018-09-29T16:26:01.296Z,72.90
2018-09-29T16:28:30.036Z,73.10
2018-09-29T16:30:58.684Z,71.90
2018-09-29T16:33:27.335Z,71.70
2018-09-29T16:35:55.980Z,73.70
2018-09-29T16:38:24.725Z,75.50
2018-09-29T16:40:53.374Z,75.80
2018-09-29T16:43:22.074Z,75.40
2018-09-29T16:45:50.707Z,75.50
2018-09-29T16:48:19.330Z,75.80
2018-09-29T16:50:48.007Z,77.30
2018-09-29T16:53:16.652Z,79.20
2018-09-29T16:55:45.309Z,80.00
2018-09-29T16:58:13.970Z,80.10
2018-09-29T17:00:42.652Z,79.80
2018-09-29T17:03:11.319Z,80.80
2018-09-29T17:05:39.987Z,81.20
2018-09-29T17:08:08.656Z,82.00
2018-09-29T17:10:37.293Z,83.60
2018-09-29T17:13:05.955Z,83.00
2018-09-29T17:15:34.624Z,83.30
2018-09-29T17:18:03.213Z,84.10
2018-09-29T17:20:31.895Z,85.10
2018-09-29T17:23:00.511Z,85.30
2018-09-29T17:25:29.177Z,85.70
2018-09-29T17:27:57.793Z,86.40
2018-09-29T17:30:26.377Z,87.10
2018-09-29T17:32:55.104Z,87.20
2018-09-29T17:35:23.743Z,87.60
2018-09-29T17:37:52.425Z,88.40
2018-09-29T17:40:21.108Z,88.90
2018-09-29T17:42:49.763Z,89.20
2018-09-29T17:45:18.418Z,89.40
2018-09-29T17:47:47.059Z,89.40
2018-09-29T17:50:15.677Z,89.50
2018-09-29T17:52:44.303Z,89.60
2018-09-29T17:55:12.928Z,89.40
2018-09-29T17:57:41.543Z,89.50
2018-09-29T18:00:10.212Z,90.00
2018-09-29T18:02:39.145Z,90.00
2018-09-29T18:05:07.868Z,90.00
2018-09-29T18:07:36.486Z,90.00
2018-09-29T18:10:05.749Z,90.10
2018-09-29T18:12:34.396Z,90.30
2018-09-29T18:15:03.403Z,90.40
2018-09-29T18:17:32.053Z,90.50
2018-09-29T18:20:00.664Z,90.50
2018-09-29T18:22:29.311Z,90.60
2018-09-29T18:24:57.959Z,90.70
2018-09-29T18:27:26.592Z,91.00
2018-09-29T18:29:55.315Z,91.40
2018-09-29T18:32:23.915Z,91.60
2018-09-29T18:34:52.550Z,91.80
2018-09-29T18:37:21.245Z,91.90
2018-09-29T18:39:49.882Z,91.80
2018-09-29T18:42:18.503Z,91.90
2018-09-29T18:44:47.192Z,91.80
2018-09-29T18:47:15.854Z,91.70
2018-09-29T18:49:44.528Z,91.80
2018-09-29T18:52:13.151Z,91.90
2018-09-29T18:54:41.858Z,91.90
2018-09-29T18:57:10.468Z,91.80
2018-09-29T18:59:39.112Z,91.80
2018-09-29T19:02:07.875Z,91.80
2018-09-29T19:04:36.552Z,92.00
2018-09-29T19:07:05.252Z,92.10
2018-09-29T19:09:33.920Z,92.10
2018-09-29T19:12:02.636Z,92.30
2018-09-29T19:14:31.273Z,92.70
2018-09-29T19:16:59.962Z,92.70
2018-09-29T19:19:28.652Z,92.70
2018-09-29T19:21:57.311Z,92.80
2018-09-29T19:24:25.940Z,92.80
2018-09-29T19:26:54.580Z,92.80
2018-09-29T19:29:23.238Z,92.80
2018-09-29T19:31:51.935Z,92.90
2018-09-29T19:34:20.565Z,93.20
2018-09-29T19:36:49.386Z,93.20
2018-09-29T19:39:18.033Z,93.30
2018-09-29T19:41:46.724Z,93.30
2018-09-29T19:44:15.380Z,93.20
2018-09-29T19:46:44.044Z,93.20
2018-09-29T19:49:12.761Z,93.20
2018-09-29T19:51:41.411Z,93.20
2018-09-29T19:54:10.136Z,93.20
2018-09-29T19:56:38.883Z,93.30
2018-09-29T19:59:07.520Z,93.20
2018-09-29T20:01:36.192Z,93.20
2018-09-29T20:04:04.939Z,93.10
2018-09-29T20:06:33.552Z,93.10
2018-09-29T20:09:02.233Z,93.10
2018-09-29T20:11:30.856Z,93.10
2018-09-29T20:13:59.511Z,93.20
2018-09-29T20:16:28.164Z,93.10
2018-09-29T20:18:57.155Z,93.20
2018-09-29T20:21:25.812Z,93.20
2018-09-29T20:23:54.441Z,93.30
2018-09-29T20:26:23.103Z,93.20
2018-09-29T20:28:51.716Z,93.30
2018-09-29T20:31:20.339Z,93.30
2018-09-29T20:33:49.037Z,93.30
2018-09-29T20:36:17.673Z,93.40
2018-09-29T20:38:46.440Z,93.40
2018-09-29T20:41:15.077Z,93.40
2018-09-29T20:43:43.809Z,93.40
2018-09-29T20:46:12.458Z,93.50
2018-09-29T20:48:41.117Z,93.60
2018-09-29T20:51:09.839Z,93.60
2018-09-29T20:53:38.492Z,93.70
2018-09-29T20:56:07.195Z,93.60
2018-09-29T20:58:35.828Z,93.80
2018-09-29T21:01:04.475Z,93.70
2018-09-29T21:03:33.128Z,93.70
2018-09-29T21:06:02.052Z,93.70
2018-09-29T21:08:30.721Z,93.90
2018-09-29T21:10:59.343Z,93.90
2018-09-29T21:13:28.100Z,94.10
2018-09-29T21:15:56.728Z,94.30
2018-09-29T21:18:25.303Z,94.40
2018-09-29T21:20:54.063Z,94.30
2018-09-29T21:23:22.708Z,94.40
2018-09-29T21:25:51.311Z,94.30
2018-09-29T21:28:20.049Z,94.40
2018-09-29T21:30:48.776Z,94.30
2018-09-29T21:33:17.454Z,94.30
2018-09-29T21:35:46.127Z,94.20
2018-09-29T21:38:14.810Z,94.10
2018-09-29T21:40:43.536Z,94.40
2018-09-29T21:43:12.547Z,94.10
2018-09-29T21:45:41.204Z,94.00
2018-09-29T21:48:09.837Z,94.00
2018-09-29T21:50:38.491Z,94.00
2018-09-29T21:53:07.134Z,94.10
2018-09-29T21:55:35.825Z,94.00
2018-09-29T21:58:04.471Z,94.00
2018-09-29T22:00:38.497Z,94.00
2018-09-29T22:03:07.259Z,93.90
2018-09-29T22:05:35.919Z,93.90
2018-09-29T22:08:04.549Z,93.90
2018-09-29T22:10:33.553Z,94.00
2018-09-29T22:13:02.244Z,93.90
2018-09-29T22:15:30.856Z,93.90
2018-09-29T22:17:59.561Z,94.00
2018-09-29T22:20:28.187Z,94.00
2018-09-29T22:22:56.908Z,94.00
2018-09-29T22:25:25.585Z,94.00
2018-09-29T22:27:54.557Z,93.90
2018-09-29T22:30:23.172Z,93.90
2018-09-29T22:32:51.812Z,93.90
2018-09-29T22:35:20.470Z,93.90
2018-09-29T22:37:49.132Z,94.00
2018-09-29T22:40:17.849Z,93.90
2018-09-29T22:42:46.500Z,94.20
2018-09-29T22:45:15.199Z,93.80
2018-09-29T22:47:43.836Z,93.70
2018-09-29T22:50:12.715Z,93.70
2018-09-29T22:52:41.349Z,93.80
2018-09-29T22:55:10.067Z,93.90
2018-09-29T22:57:38.783Z,94.10
2018-09-29T23:00:07.707Z,94.10
2018-09-29T23:02:36.399Z,94.10
2018-09-29T23:05:05.127Z,94.00
2018-09-29T23:07:33.800Z,94.00
2018-09-29T23:10:02.467Z,94.10
2018-09-29T23:12:31.160Z,94.20
2018-09-29T23:14:59.827Z,94.20
2018-09-29T23:17:28.470Z,94.10
2018-09-29T23:19:57.170Z,94.10
2018-09-29T23:22:25.835Z,94.10
2018-09-29T23:24:54.456Z,94.10
2018-09-29T23:27:23.133Z,94.20
2018-09-29T23:29:51.783Z,94.20
2018-09-29T23:32:20.399Z,94.30
2018-09-29T23:34:49.083Z,94.40
2018-09-29T23:37:17.707Z,94.50
2018-09-29T23:39:46.404Z,94.30
2018-09-29T23:42:15.092Z,94.20
2018-09-29T23:44:43.723Z,94.10
2018-09-29T23:47:12.658Z,94.20
2018-09-29T23:49:41.368Z,94.50
2018-09-29T23:52:10.051Z,94.20
2018-09-29T23:54:38.792Z,94.30
2018-09-29T23:57:07.507Z,94.20
2018-09-29T23:59:36.184Z,94.20
